Time;durP1;ratioP1;P1;durP2;ratioP2;P2;SDS_P1;SDS_P2;PMS_P1;PMS_P2;Temp;Humidity;BMP_temperature;BMP_pressure;BME280_temperature;BME280_humidity;BME280_pressure;Samples;Min_cycle;Max_cycle;Signal;HPM_P1;HPM_P2
2023/03/10 00:02:19;;;;;;;;;;;14.50;99.90;;;;;;5052420;28;20018;-72
2023/03/10 00:04:48;;;;;;;;;;;14.50;99.90;;;;;;5053382;28;19958;-72
2023/03/10 00:07:14;;;;;;;;;;;14.40;99.90;;;;;;5053591;28;20190;-72
2023/03/10 00:09:40;;;;;;;;;;;14.30;99.90;;;;;;5053207;28;19920;-72
2023/03/10 00:12:05;;;;;;;;;;;14.40;99.90;;;;;;5053450;28;19931;-72
2023/03/10 00:14:31;;;;;;;;;;;14.30;99.90;;;;;;5051830;28;20029;-72
2023/03/10 00:16:57;;;;;;;;;;;14.30;99.90;;;;;;5053197;28;19952;-72
2023/03/10 00:19:22;;;;;;;;;;;14.30;99.90;;;;;;5053340;28;19920;-72
2023/03/10 00:21:48;;;;;;;;;;;14.30;99.90;;;;;;5052888;28;19913;-72
2023/03/10 00:24:14;;;;;;;;;;;14.20;99.90;;;;;;5052126;28;19917;-73
2023/03/10 00:26:39;;;;;;;;;;;14.20;99.90;;;;;;5053633;28;20259;-72
2023/03/10 00:29:05;;;;;;;;;;;14.20;99.90;;;;;;5052834;28;19909;-72
2023/03/10 00:31:31;;;;;;;;;;;14.30;99.90;;;;;;5053438;28;19909;-72
2023/03/10 00:33:57;;;;;;;;;;;14.20;99.90;;;;;;5053713;28;19915;-72
2023/03/10 00:36:25;;;;;;;;;;;14.20;99.90;;;;;;5052909;28;19966;-72
2023/03/10 00:38:51;;;;;;;;;;;14.20;99.90;;;;;;5052999;28;19979;-72
2023/03/10 00:41:21;;;;;;;;;;;14.10;99.90;;;;;;5053480;28;19909;-73
2023/03/10 00:43:47;;;;;;;;;;;14.20;99.90;;;;;;5053128;28;19909;-72
2023/03/10 00:46:13;;;;;;;;;;;14.10;99.90;;;;;;5053341;28;19920;-72
2023/03/10 00:48:39;;;;;;;;;;;14.00;99.90;;;;;;5052634;28;19916;-72
2023/03/10 00:51:05;;;;;;;;;;;14.10;99.90;;;;;;5052955;28;19924;-72
2023/03/10 00:53:30;;;;;;;;;;;14.10;99.90;;;;;;5052950;28;19934;-73
2023/03/10 00:56:00;;;;;;;;;;;14.10;99.90;;;;;;5053083;28;19965;-72
2023/03/10 00:58:26;;;;;;;;;;;14.10;99.90;;;;;;5052448;28;19909;-72
2023/03/10 01:00:53;;;;;;;;;;;14.10;99.90;;;;;;5053242;28;19916;-72
2023/03/10 01:03:19;;;;;;;;;;;14.10;99.90;;;;;;5052710;28;19909;-72
2023/03/10 01:05:46;;;;;;;;;;;14.20;99.90;;;;;;5053012;28;19920;-72
2023/03/10 01:08:11;;;;;;;;;;;14.20;99.90;;;;;;5052377;28;19916;-72
2023/03/10 01:10:37;;;;;;;;;;;14.20;99.90;;;;;;5052799;28;19909;-72
2023/03/10 01:13:03;;;;;;;;;;;14.30;99.90;;;;;;5053694;28;20350;-72
2023/03/10 01:15:28;;;;;;;;;;;14.30;99.90;;;;;;5056655;28;19915;-72
2023/03/10 01:17:54;;;;;;;;;;;14.20;99.90;;;;;;5056218;28;19909;-72
2023/03/10 01:20:20;;;;;;;;;;;14.20;99.90;;;;;;5056529;28;19966;-72
2023/03/10 01:22:45;;;;;;;;;;;14.20;99.90;;;;;;5056102;28;19928;-72
2023/03/10 01:25:15;;;;;;;;;;;14.10;99.90;;;;;;5056531;28;19996;-72
2023/03/10 01:27:42;;;;;;;;;;;14.20;99.90;;;;;;5056407;28;19909;-73
2023/03/10 01:30:09;;;;;;;;;;;14.10;99.90;;;;;;5054014;28;19915;-74
2023/03/10 01:32:35;;;;;;;;;;;14.10;99.90;;;;;;5056143;28;19912;-72
2023/03/10 01:35:01;;;;;;;;;;;14.10;99.90;;;;;;5056223;28;19970;-72
2023/03/10 01:37:27;;;;;;;;;;;14.10;99.90;;;;;;5055150;28;19909;-72
2023/03/10 01:39:53;;;;;;;;;;;14.10;99.90;;;;;;5055983;28;19909;-72
2023/03/10 01:42:18;;;;;;;;;;;14.10;99.90;;;;;;5056517;28;19940;-73
2023/03/10 01:45:03;;;;;;;;;;;14.00;99.90;;;;;;5056213;28;19928;-72
2023/03/10 01:47:28;;;;;;;;;;;14.10;99.90;;;;;;5056169;28;20262;-73
2023/03/10 01:49:54;;;;;;;;;;;14.10;99.90;;;;;;5056274;28;19912;-72
2023/03/10 01:52:22;;;;;;;;;;;14.00;99.90;;;;;;5056153;28;19909;-72
2023/03/10 01:54:57;;;;;;;;;;;14.10;99.90;;;;;;5056191;28;19915;-73
2023/03/10 01:57:26;;;;;;;;;;;14.10;99.90;;;;;;5055883;28;19916;-72
2023/03/10 01:59:52;;;;;;;;;;;14.20;99.90;;;;;;5055780;28;20387;-72
2023/03/10 02:02:18;;;;;;;;;;;14.30;99.90;;;;;;5055413;28;20004;-72
2023/03/10 02:04:47;;;;;;;;;;;14.30;99.90;;;;;;5056033;28;20074;-73
2023/03/10 02:07:13;;;;;;;;;;;14.20;99.90;;;;;;5055796;28;19909;-72
2023/03/10 02:09:41;;;;;;;;;;;14.20;99.90;;;;;;5055990;28;19995;-76
2023/03/10 02:12:08;;;;;;;;;;;14.20;99.90;;;;;;5055539;28;19909;-72
2023/03/10 02:14:34;;;;;;;;;;;14.20;99.90;;;;;;5055724;28;19909;-72
2023/03/10 02:17:01;;;;;;;;;;;14.20;99.90;;;;;;5055752;28;19913;-72
2023/03/10 02:19:34;;;;;;;;;;;14.30;99.90;;;;;;5055422;28;19931;-73
2023/03/10 02:22:07;;;;;;;;;;;14.20;99.90;;;;;;5055226;28;20500;-72
2023/03/10 02:24:39;;;;;;;;;;;14.30;99.90;;;;;;5054611;28;19919;-72
2023/03/10 02:27:11;;;;;;;;;;;14.30;99.90;;;;;;5055397;28;20286;-73
2023/03/10 02:29:40;;;;;;;;;;;14.10;99.90;;;;;;5055296;28;19909;-72
2023/03/10 02:32:06;;;;;;;;;;;14.20;99.90;;;;;;5055753;28;19985;-73
2023/03/10 02:34:32;;;;;;;;;;;14.40;99.90;;;;;;5055314;28;19915;-72
2023/03/10 02:36:58;;;;;;;;;;;14.40;99.90;;;;;;5055773;28;19916;-72
2023/03/10 02:39:23;;;;;;;;;;;14.40;99.90;;;;;;5054859;28;19913;-73
2023/03/10 02:41:49;;;;;;;;;;;14.40;99.90;;;;;;5055402;28;19948;-72
2023/03/10 02:44:17;;;;;;;;;;;14.30;99.90;;;;;;5054959;28;19958;-72
2023/03/10 02:46:43;;;;;;;;;;;14.30;99.90;;;;;;5055059;28;19955;-72
2023/03/10 02:49:09;;;;;;;;;;;14.30;99.90;;;;;;5054961;28;19909;-72
2023/03/10 02:51:38;;;;;;;;;;;14.30;99.90;;;;;;5055150;28;19913;-72
2023/03/10 02:54:03;;;;;;;;;;;14.30;99.90;;;;;;5054866;28;19966;-72
2023/03/10 02:56:31;;;;;;;;;;;14.30;99.90;;;;;;5055363;28;19992;-73
2023/03/10 02:58:57;;;;;;;;;;;14.30;99.90;;;;;;5054952;28;19916;-72
2023/03/10 03:01:25;;;;;;;;;;;14.20;99.90;;;;;;5054561;28;19916;-72
2023/03/10 03:03:51;;;;;;;;;;;14.10;99.90;;;;;;5054215;28;19908;-74
2023/03/10 03:06:16;;;;;;;;;;;14.10;99.90;;;;;;5054604;28;19935;-72
2023/03/10 03:08:42;;;;;;;;;;;14.20;99.90;;;;;;5054410;28;20367;-72
2023/03/10 03:11:08;;;;;;;;;;;14.30;99.90;;;;;;5054949;28;19909;-72
2023/03/10 03:13:34;;;;;;;;;;;14.30;99.90;;;;;;5054676;28;19920;-73
2023/03/10 03:15:59;;;;;;;;;;;14.30;99.90;;;;;;5054704;28;19916;-72
2023/03/10 03:18:25;;;;;;;;;;;14.20;99.90;;;;;;5054232;28;19915;-72
2023/03/10 03:20:50;;;;;;;;;;;14.10;99.90;;;;;;5054122;28;19936;-72
2023/03/10 03:23:16;;;;;;;;;;;14.10;99.90;;;;;;5054364;28;19917;-75
2023/03/10 03:25:42;;;;;;;;;;;14.00;99.90;;;;;;5054495;28;19912;-72
2023/03/10 03:28:09;;;;;;;;;;;14.00;99.90;;;;;;5054257;28;20126;-72
2023/03/10 03:30:35;;;;;;;;;;;14.00;99.90;;;;;;5054292;28;20004;-73
2023/03/10 03:33:01;;;;;;;;;;;14.20;99.90;;;;;;5054246;28;20345;-72
2023/03/10 03:35:31;;;;;;;;;;;14.30;99.90;;;;;;5054001;28;19954;-72
2023/03/10 03:37:57;;;;;;;;;;;14.20;99.90;;;;;;5054150;28;19920;-73
2023/03/10 03:40:24;;;;;;;;;;;14.30;99.90;;;;;;5054105;28;19909;-73
2023/03/10 03:42:50;;;;;;;;;;;14.30;99.90;;;;;;5054036;28;19909;-73
2023/03/10 03:45:17;;;;;;;;;;;14.20;99.90;;;;;;5053983;28;19974;-72
2023/03/10 03:47:43;;;;;;;;;;;14.10;99.90;;;;;;5053809;28;19944;-72
2023/03/10 03:50:10;;;;;;;;;;;14.00;99.90;;;;;;5053498;28;19915;-72
2023/03/10 03:52:36;;;;;;;;;;;14.00;99.90;;;;;;5053935;28;19945;-73
2023/03/10 03:55:02;;;;;;;;;;;14.20;99.90;;;;;;5053761;28;19916;-73
2023/03/10 03:57:27;;;;;;;;;;;14.10;99.90;;;;;;5053691;28;19920;-72
2023/03/10 03:59:53;;;;;;;;;;;14.00;99.90;;;;;;5053562;28;19913;-73
2023/03/10 04:02:19;;;;;;;;;;;13.90;99.90;;;;;;5054106;28;19958;-73
2023/03/10 04:04:44;;;;;;;;;;;13.90;99.90;;;;;;5053955;28;19923;-72
2023/03/10 04:07:10;;;;;;;;;;;13.80;99.90;;;;;;5053711;28;19924;-72
2023/03/10 04:09:40;;;;;;;;;;;13.90;99.90;;;;;;5052216;28;19908;-72
2023/03/10 04:12:06;;;;;;;;;;;13.80;99.90;;;;;;5053849;28;20099;-72
2023/03/10 04:14:32;;;;;;;;;;;13.70;99.90;;;;;;5053286;28;19908;-72
2023/03/10 04:16:58;;;;;;;;;;;13.70;99.90;;;;;;5053578;28;19955;-72
2023/03/10 04:19:23;;;;;;;;;;;13.70;99.90;;;;;;5052917;28;19912;-75
2023/03/10 04:21:49;;;;;;;;;;;13.60;99.90;;;;;;5053527;28;19915;-72
2023/03/10 04:24:15;;;;;;;;;;;13.50;99.90;;;;;;5053287;28;19996;-72
2023/03/10 04:26:40;;;;;;;;;;;13.40;99.90;;;;;;5053924;28;19984;-72
2023/03/10 04:29:06;;;;;;;;;;;13.40;99.90;;;;;;5053459;28;20003;-72
2023/03/10 04:31:32;;;;;;;;;;;13.50;99.90;;;;;;5053868;28;19909;-72
2023/03/10 04:33:57;;;;;;;;;;;13.50;99.90;;;;;;5053267;28;19909;-73
2023/03/10 04:36:23;;;;;;;;;;;13.70;99.90;;;;;;5053449;28;19931;-72
2023/03/10 04:38:49;;;;;;;;;;;13.70;99.90;;;;;;5053192;28;19909;-72
2023/03/10 04:41:14;;;;;;;;;;;13.60;99.90;;;;;;5053520;28;19918;-72
2023/03/10 04:43:40;;;;;;;;;;;13.60;99.90;;;;;;5053292;28;20352;-72
2023/03/10 04:46:06;;;;;;;;;;;13.70;99.90;;;;;;5052948;28;20370;-72
2023/03/10 04:48:32;;;;;;;;;;;13.70;99.90;;;;;;5052771;28;19913;-72
2023/03/10 04:51:01;;;;;;;;;;;13.70;99.90;;;;;;5053357;28;19944;-72
2023/03/10 04:53:27;;;;;;;;;;;13.70;99.90;;;;;;5053517;28;19939;-72
2023/03/10 04:55:53;;;;;;;;;;;13.70;99.90;;;;;;5053689;28;20405;-72
2023/03/10 04:58:19;;;;;;;;;;;13.70;99.90;;;;;;5053086;28;19915;-72
2023/03/10 05:00:45;;;;;;;;;;;13.70;99.90;;;;;;5053213;28;19970;-72
2023/03/10 05:03:11;;;;;;;;;;;13.70;99.90;;;;;;5052725;28;20204;-72
2023/03/10 05:05:37;;;;;;;;;;;13.70;99.90;;;;;;5052803;28;19920;-73
2023/03/10 05:08:03;;;;;;;;;;;13.80;99.90;;;;;;5052667;28;19974;-72
2023/03/10 05:10:29;;;;;;;;;;;13.80;99.90;;;;;;5052622;28;19931;-72
2023/03/10 05:12:54;;;;;;;;;;;13.80;99.90;;;;;;5052698;28;19909;-73
2023/03/10 05:15:20;;;;;;;;;;;13.80;99.90;;;;;;5052911;28;19916;-72
2023/03/10 05:17:46;;;;;;;;;;;13.80;99.90;;;;;;5052473;28;19909;-72
2023/03/10 05:20:13;;;;;;;;;;;13.90;99.90;;;;;;5052594;28;19915;-72
2023/03/10 05:22:39;;;;;;;;;;;13.90;99.90;;;;;;5052743;28;19980;-73
2023/03/10 05:25:05;;;;;;;;;;;13.90;99.90;;;;;;5052307;28;20374;-72
2023/03/10 05:27:31;;;;;;;;;;;13.90;99.90;;;;;;5052486;28;19934;-73
2023/03/10 05:29:57;;;;;;;;;;;13.90;99.90;;;;;;5051217;28;20281;-72
2023/03/10 05:32:22;;;;;;;;;;;14.00;99.90;;;;;;5052786;28;19909;-72
2023/03/10 05:34:48;;;;;;;;;;;13.90;99.90;;;;;;5052803;28;20352;-72
2023/03/10 05:37:14;;;;;;;;;;;14.00;99.90;;;;;;5052523;28;19920;-72
2023/03/10 05:39:39;;;;;;;;;;;14.10;99.90;;;;;;5052555;28;19917;-72
2023/03/10 05:42:05;;;;;;;;;;;14.10;99.90;;;;;;5052338;28;20027;-72
2023/03/10 05:44:31;;;;;;;;;;;14.10;99.90;;;;;;5052345;28;19934;-72
2023/03/10 05:46:57;;;;;;;;;;;14.20;99.90;;;;;;5052444;28;19983;-72
2023/03/10 05:49:22;;;;;;;;;;;14.10;99.90;;;;;;5052361;28;19912;-72
2023/03/10 05:51:48;;;;;;;;;;;14.10;99.90;;;;;;5052228;28;19920;-73
2023/03/10 05:54:14;;;;;;;;;;;14.10;99.90;;;;;;5052455;28;19920;-72
2023/03/10 05:56:40;;;;;;;;;;;14.00;99.90;;;;;;5052565;28;20011;-73
2023/03/10 05:59:06;;;;;;;;;;;14.20;99.90;;;;;;5050795;28;19964;-72
2023/03/10 06:01:31;;;;;;;;;;;14.20;99.90;;;;;;5055872;28;20270;-72
2023/03/10 06:03:57;;;;;;;;;;;14.20;99.90;;;;;;5056144;28;19909;-75
2023/03/10 06:06:23;;;;;;;;;;;14.20;99.90;;;;;;5056096;28;19912;-72
2023/03/10 06:08:48;;;;;;;;;;;14.20;99.90;;;;;;5054784;28;19908;-72
2023/03/10 06:11:14;;;;;;;;;;;14.20;99.90;;;;;;5056339;28;20390;-72
2023/03/10 06:13:40;;;;;;;;;;;14.20;99.90;;;;;;5055471;28;19909;-72
2023/03/10 06:16:06;;;;;;;;;;;14.20;99.90;;;;;;5054244;28;19915;-73
2023/03/10 06:18:32;;;;;;;;;;;14.20;99.90;;;;;;5055278;28;19955;-72
2023/03/10 06:20:58;;;;;;;;;;;14.30;99.90;;;;;;5055689;28;19909;-72
2023/03/10 06:23:24;;;;;;;;;;;14.30;99.90;;;;;;5055405;28;19927;-73
2023/03/10 06:26:00;;;;;;;;;;;14.30;99.90;;;;;;5055544;28;20007;-72
2023/03/10 06:28:31;;;;;;;;;;;14.20;99.90;;;;;;5055370;28;19916;-73
2023/03/10 06:31:00;;;;;;;;;;;14.30;99.90;;;;;;5055484;28;19909;-72
2023/03/10 06:33:26;;;;;;;;;;;14.30;99.90;;;;;;5055210;28;20397;-72
2023/03/10 06:35:51;;;;;;;;;;;14.30;99.90;;;;;;5055603;28;19909;-73
2023/03/10 06:38:17;;;;;;;;;;;14.30;99.90;;;;;;5055391;28;19908;-72
2023/03/10 06:40:43;;;;;;;;;;;14.30;99.90;;;;;;5055141;28;19916;-72
2023/03/10 06:43:09;;;;;;;;;;;14.30;99.90;;;;;;5053757;28;19960;-72
2023/03/10 06:45:34;;;;;;;;;;;14.40;99.90;;;;;;5055270;28;19917;-72
2023/03/10 06:48:00;;;;;;;;;;;14.40;99.90;;;;;;5055114;28;19909;-72
2023/03/10 06:50:26;;;;;;;;;;;14.30;99.90;;;;;;5055183;28;19913;-72
2023/03/10 06:52:51;;;;;;;;;;;14.40;99.90;;;;;;5052774;28;19995;-72
2023/03/10 06:55:17;;;;;;;;;;;14.40;99.90;;;;;;5052876;28;19959;-72
2023/03/10 06:57:43;;;;;;;;;;;14.40;99.90;;;;;;5053089;28;19954;-72
2023/03/10 07:00:11;;;;;;;;;;;14.50;99.90;;;;;;5053020;28;20312;-72
2023/03/10 07:02:37;;;;;;;;;;;14.50;99.90;;;;;;5053400;28;20312;-72
2023/03/10 07:05:04;;;;;;;;;;;14.50;99.90;;;;;;5052885;28;19965;-72
2023/03/10 07:07:30;;;;;;;;;;;14.50;99.90;;;;;;5052866;28;19909;-72
2023/03/10 07:09:56;;;;;;;;;;;14.60;99.90;;;;;;5052364;28;19908;-72
2023/03/10 07:12:22;;;;;;;;;;;14.60;99.90;;;;;;5051005;28;20014;-72
2023/03/10 07:14:48;;;;;;;;;;;14.70;99.90;;;;;;5051083;28;19913;-72
2023/03/10 07:17:14;;;;;;;;;;;14.90;99.90;;;;;;5053919;28;19939;-72
2023/03/10 07:19:39;;;;;;;;;;;14.80;99.90;;;;;;5054630;28;19908;-73
2023/03/10 07:22:05;;;;;;;;;;;14.80;99.90;;;;;;5052405;28;20278;-72
2023/03/10 07:24:31;;;;;;;;;;;14.80;99.90;;;;;;5054257;28;19996;-72
2023/03/10 07:26:59;;;;;;;;;;;15.00;99.90;;;;;;5052376;28;19909;-72
2023/03/10 07:29:25;;;;;;;;;;;15.10;99.90;;;;;;5052039;28;19909;-72
2023/03/10 07:31:51;;;;;;;;;;;15.20;99.90;;;;;;5052206;28;19909;-72
2023/03/10 07:34:17;;;;;;;;;;;15.30;99.90;;;;;;5052295;28;19931;-72
2023/03/10 07:36:42;;;;;;;;;;;15.40;99.90;;;;;;5050611;28;20313;-72
2023/03/10 07:39:08;;;;;;;;;;;15.40;99.90;;;;;;5051928;28;19948;-73
2023/03/10 07:41:34;;;;;;;;;;;15.50;99.90;;;;;;5054031;28;19915;-73
2023/03/10 07:44:00;;;;;;;;;;;15.50;99.90;;;;;;5053906;28;19952;-72
2023/03/10 07:46:25;;;;;;;;;;;15.50;99.90;;;;;;5053899;28;20124;-72
2023/03/10 07:48:51;;;;;;;;;;;15.60;99.90;;;;;;5053774;28;20003;-72
2023/03/10 07:51:17;;;;;;;;;;;15.60;99.90;;;;;;5054408;28;19916;-73
2023/03/10 07:53:43;;;;;;;;;;;15.60;99.90;;;;;;5053680;28;19909;-72
2023/03/10 07:56:11;;;;;;;;;;;15.50;99.90;;;;;;5053682;28;19908;-73
2023/03/10 07:58:37;;;;;;;;;;;15.50;99.90;;;;;;5051803;28;20428;-72
2023/03/10 08:01:03;;;;;;;;;;;15.60;99.90;;;;;;5053860;28;19912;-74
2023/03/10 08:03:29;;;;;;;;;;;15.80;99.90;;;;;;5054137;28;19909;-72
2023/03/10 08:06:05;;;;;;;;;;;;;;;;;;;;;
2023/03/10 08:08:31;;;;;;;;;;;15.70;99.90;;;;;;5053317;28;19915;-73
2023/03/10 08:11:00;;;;;;;;;;;15.80;99.90;;;;;;5053531;28;19940;-73
2023/03/10 08:13:26;;;;;;;;;;;15.80;99.90;;;;;;5053538;28;19908;-73
2023/03/10 08:15:52;;;;;;;;;;;15.80;99.90;;;;;;5053588;28;19913;-73
2023/03/10 08:18:18;;;;;;;;;;;15.80;99.90;;;;;;5053324;28;19915;-73
2023/03/10 08:20:44;;;;;;;;;;;15.90;99.90;;;;;;5053575;28;20011;-73
2023/03/10 08:23:09;;;;;;;;;;;15.90;99.90;;;;;;5052225;28;19923;-73
2023/03/10 08:25:36;;;;;;;;;;;16.00;99.90;;;;;;5052710;28;19932;-73
2023/03/10 08:28:02;;;;;;;;;;;16.00;99.90;;;;;;5053179;28;20382;-72
2023/03/10 08:30:27;;;;;;;;;;;16.10;99.90;;;;;;5053148;28;19909;-73
2023/03/10 08:32:53;;;;;;;;;;;16.00;99.90;;;;;;5052103;28;19909;-73
2023/03/10 08:35:19;;;;;;;;;;;16.00;99.90;;;;;;5052837;28;19909;-73
2023/03/10 08:37:50;;;;;;;;;;;16.10;99.90;;;;;;5052797;28;19934;-73
2023/03/10 08:40:16;;;;;;;;;;;16.10;99.90;;;;;;5052651;28;19919;-73
2023/03/10 08:42:41;;;;;;;;;;;16.00;99.90;;;;;;5052842;28;20000;-73
2023/03/10 08:45:07;;;;;;;;;;;16.00;99.90;;;;;;5052772;28;20295;-73
2023/03/10 08:47:36;;;;;;;;;;;16.10;99.90;;;;;;5052740;28;19909;-73
2023/03/10 08:50:04;;;;;;;;;;;16.00;99.90;;;;;;5052220;28;19908;-72
2023/03/10 08:52:29;;;;;;;;;;;16.10;99.90;;;;;;5053090;28;19978;-73
2023/03/10 08:54:55;;;;;;;;;;;16.10;99.90;;;;;;5052506;28;20375;-73
2023/03/10 08:57:21;;;;;;;;;;;16.00;99.90;;;;;;5052964;28;19909;-73
2023/03/10 08:59:47;;;;;;;;;;;16.20;99.90;;;;;;5052678;28;19909;-73
2023/03/10 09:02:14;;;;;;;;;;;16.10;99.90;;;;;;5051923;28;19994;-73
2023/03/10 09:04:40;;;;;;;;;;;16.10;99.90;;;;;;5053118;28;19913;-73
2023/03/10 09:07:06;;;;;;;;;;;16.10;99.90;;;;;;5052678;28;20374;-73
2023/03/10 09:09:32;;;;;;;;;;;16.10;99.90;;;;;;5050953;28;19916;-74
2023/03/10 09:11:57;;;;;;;;;;;16.00;99.90;;;;;;5052847;28;19908;-73
2023/03/10 09:14:23;;;;;;;;;;;16.10;99.90;;;;;;5052783;28;20362;-72
2023/03/10 09:16:49;;;;;;;;;;;16.00;99.90;;;;;;5052991;28;19909;-75
2023/03/10 09:19:14;;;;;;;;;;;16.00;99.90;;;;;;5052244;28;19913;-73
2023/03/10 09:21:41;;;;;;;;;;;16.00;99.90;;;;;;5052661;28;19909;-73
2023/03/10 09:24:07;;;;;;;;;;;16.00;99.90;;;;;;5052461;28;19913;-73
2023/03/10 09:26:33;;;;;;;;;;;16.10;99.90;;;;;;5051746;28;19952;-73
2023/03/10 09:28:59;;;;;;;;;;;16.20;99.90;;;;;;5052912;28;19947;-73
2023/03/10 09:31:28;;;;;;;;;;;16.10;99.90;;;;;;5052755;28;20228;-73
2023/03/10 09:33:54;;;;;;;;;;;16.20;99.90;;;;;;5053370;28;20074;-73
2023/03/10 09:36:19;;;;;;;;;;;16.10;99.90;;;;;;5056855;28;19963;-73
2023/03/10 09:38:45;;;;;;;;;;;16.10;99.90;;;;;;5055770;28;19978;-73
2023/03/10 09:41:36;;;;;;;;;;;16.20;99.90;;;;;;5056316;28;19996;-73
2023/03/10 09:44:22;;;;;;;;;;;16.20;99.90;;;;;;5056217;28;19916;-73
2023/03/10 09:46:49;;;;;;;;;;;16.10;99.90;;;;;;5052452;28;19925;-73
2023/03/10 09:49:22;;;;;;;;;;;16.10;99.90;;;;;;5055931;28;19913;-73
2023/03/10 09:51:48;;;;;;;;;;;16.00;99.90;;;;;;5055935;28;19913;-73
2023/03/10 09:54:25;;;;;;;;;;;15.90;99.90;;;;;;5056203;28;20107;-73
2023/03/10 09:56:51;;;;;;;;;;;15.90;99.90;;;;;;5055699;28;19912;-73
2023/03/10 09:59:23;;;;;;;;;;;15.80;99.90;;;;;;5055823;28;19931;-73
2023/03/10 10:01:49;;;;;;;;;;;15.70;99.90;;;;;;5054978;28;19908;-73
2023/03/10 10:04:35;;;;;;;;;;;15.70;99.90;;;;;;5056568;28;20321;-73
2023/03/10 10:07:01;;;;;;;;;;;15.70;99.90;;;;;;5055660;28;19920;-73
2023/03/10 10:09:31;;;;;;;;;;;15.70;99.90;;;;;;5056128;28;19916;-72
2023/03/10 10:11:59;;;;;;;;;;;15.70;99.90;;;;;;5055075;28;19918;-73
2023/03/10 10:14:27;;;;;;;;;;;15.70;99.90;;;;;;5055768;28;20011;-73
2023/03/10 10:17:16;;;;;;;;;;;15.80;99.90;;;;;;5055742;28;19916;-75
2023/03/10 10:19:43;;;;;;;;;;;15.80;99.90;;;;;;5055690;28;20015;-73
2023/03/10 10:22:20;;;;;;;;;;;15.80;99.90;;;;;;5055702;28;19928;-73
2023/03/10 10:25:11;;;;;;;;;;;15.70;99.90;;;;;;5056134;28;19920;-73
2023/03/10 10:27:38;;;;;;;;;;;15.70;99.90;;;;;;5053351;28;20342;-73
2023/03/10 10:30:22;;;;;;;;;;;15.60;99.90;;;;;;5054950;28;19935;-73
2023/03/10 10:32:55;;;;;;;;;;;15.50;99.90;;;;;;5055511;28;20242;-73
2023/03/10 10:35:22;;;;;;;;;;;15.40;99.90;;;;;;5055442;28;19909;-73
2023/03/10 10:37:57;;;;;;;;;;;15.30;99.90;;;;;;5053790;28;19917;-73
2023/03/10 10:40:24;;;;;;;;;;;15.20;99.90;;;;;;5055350;28;20022;-74
2023/03/10 10:42:51;;;;;;;;;;;15.20;99.90;;;;;;5055712;28;19909;-72
2023/03/10 10:45:31;;;;;;;;;;;15.10;99.90;;;;;;5054694;28;20006;-73
2023/03/10 10:47:57;;;;;;;;;;;15.00;99.90;;;;;;5055117;28;19940;-72
2023/03/10 10:50:25;;;;;;;;;;;14.80;99.90;;;;;;5055426;28;20374;-72
2023/03/10 10:53:12;;;;;;;;;;;14.70;99.90;;;;;;5055683;28;19909;-72
2023/03/10 10:55:38;;;;;;;;;;;14.60;99.90;;;;;;5051399;28;20347;-72
2023/03/10 10:58:05;;;;;;;;;;;14.50;99.90;;;;;;5055175;28;20656;-72
2023/03/10 11:00:38;;;;;;;;;;;14.40;99.90;;;;;;5055316;28;20267;-72
2023/03/10 11:03:23;;;;;;;;;;;14.30;99.90;;;;;;5053944;28;20282;-72
2023/03/10 11:05:49;;;;;;;;;;;14.20;99.90;;;;;;5054881;28;20055;-72
2023/03/10 11:08:26;;;;;;;;;;;14.10;99.90;;;;;;5053577;28;19912;-73
2023/03/10 11:10:58;;;;;;;;;;;14.10;99.90;;;;;;5055377;28;19919;-73
2023/03/10 11:13:30;;;;;;;;;;;13.80;99.90;;;;;;5054558;28;19998;-73
2023/03/10 11:16:04;;;;;;;;;;;13.80;99.90;;;;;;5054472;28;19909;-72
2023/03/10 11:18:33;;;;;;;;;;;13.70;99.90;;;;;;5054860;28;20398;-72
2023/03/10 11:21:08;;;;;;;;;;;13.60;99.90;;;;;;5054495;28;19932;-72
2023/03/10 11:23:38;;;;;;;;;;;13.60;99.90;;;;;;5054283;28;19927;-72
2023/03/10 11:26:09;;;;;;;;;;;13.50;99.90;;;;;;5054652;28;19977;-72
2023/03/10 11:28:47;;;;;;;;;;;13.60;99.90;;;;;;5053888;28;19970;-72
2023/03/10 11:31:31;;;;;;;;;;;13.70;99.90;;;;;;5054780;28;19909;-72
2023/03/10 11:34:29;;;;;;;;;;;13.60;99.90;;;;;;5054632;28;20267;-72
2023/03/10 11:37:13;;;;;;;;;;;13.50;99.90;;;;;;5054305;28;20003;-75
2023/03/10 11:39:50;;;;;;;;;;;13.50;99.90;;;;;;5053970;28;19915;-72
2023/03/10 11:42:28;;;;;;;;;;;13.50;99.90;;;;;;5054077;28;19909;-72
2023/03/10 11:45:09;;;;;;;;;;;13.40;99.90;;;;;;5053830;28;19916;-72
2023/03/10 11:47:35;;;;;;;;;;;13.50;99.90;;;;;;5054148;28;20182;-72
2023/03/10 11:50:09;;;;;;;;;;;13.50;99.90;;;;;;5053704;28;19916;-72
2023/03/10 11:52:36;;;;;;;;;;;13.50;99.90;;;;;;5054428;28;19935;-72
2023/03/10 11:55:05;;;;;;;;;;;13.60;99.90;;;;;;5054240;28;19913;-72
2023/03/10 11:57:39;;;;;;;;;;;13.60;99.90;;;;;;5053628;28;20066;-72
2023/03/10 12:00:06;;;;;;;;;;;13.50;99.90;;;;;;5053949;28;19973;-72
2023/03/10 12:02:35;;;;;;;;;;;13.50;99.90;;;;;;5052576;28;19912;-72
2023/03/10 12:05:05;;;;;;;;;;;13.60;99.90;;;;;;5051873;28;20050;-73
2023/03/10 12:07:34;;;;;;;;;;;13.50;99.90;;;;;;5054189;28;19920;-72
2023/03/10 12:10:12;;;;;;;;;;;13.50;99.90;;;;;;5048933;28;19913;-73
2023/03/10 12:12:39;;;;;;;;;;;13.50;99.90;;;;;;5033071;28;19915;-73
2023/03/10 12:15:10;;;;;;;;;;;13.60;99.90;;;;;;5033414;28;19913;-72
2023/03/10 12:17:37;;;;;;;;;;;13.70;99.90;;;;;;5033913;28;19996;-73
2023/03/10 12:20:16;;;;;;;;;;;13.70;99.90;;;;;;5033297;28;19936;-72
2023/03/10 12:22:51;;;;;;;;;;;13.80;99.90;;;;;;5033579;28;19917;-73
2023/03/10 12:25:38;;;;;;;;;;;14.00;99.90;;;;;;5033414;28;19964;-73
2023/03/10 12:28:33;;;;;;;;;;;14.10;99.90;;;;;;5033345;28;20319;-73
2023/03/10 12:31:31;;;;;;;;;;;14.10;99.90;;;;;;5032919;28;19963;-74
2023/03/10 12:34:13;;;;;;;;;;;14.20;99.90;;;;;;5033352;28;20310;-73
2023/03/10 12:36:42;;;;;;;;;;;14.30;99.90;;;;;;5033723;28;20038;-73
2023/03/10 12:39:26;;;;;;;;;;;14.30;99.90;;;;;;5033175;28;20062;-73
2023/03/10 12:41:53;;;;;;;;;;;14.40;99.90;;;;;;5033551;28;20333;-73
2023/03/10 12:44:37;;;;;;;;;;;14.50;99.90;;;;;;5033328;28;19909;-75
2023/03/10 12:47:16;;;;;;;;;;;14.50;99.90;;;;;;5033407;28;19917;-73
2023/03/10 12:49:54;;;;;;;;;;;14.60;99.90;;;;;;5033087;28;20026;-73
2023/03/10 12:52:23;;;;;;;;;;;14.70;99.90;;;;;;5033286;28;20260;-73
2023/03/10 12:54:48;;;;;;;;;;;14.60;99.90;;;;;;5033164;28;20121;-73
2023/03/10 12:57:33;;;;;;;;;;;14.60;99.90;;;;;;5032977;28;19944;-73
2023/03/10 13:00:07;;;;;;;;;;;14.70;99.90;;;;;;5032554;28;19909;-73
2023/03/10 13:02:45;;;;;;;;;;;14.70;99.90;;;;;;5032998;28;19909;-73
2023/03/10 13:05:18;;;;;;;;;;;14.60;99.90;;;;;;5033054;28;19975;-73
2023/03/10 13:07:46;;;;;;;;;;;14.70;99.90;;;;;;5033205;28;19915;-74
2023/03/10 13:10:15;;;;;;;;;;;14.80;99.90;;;;;;5035247;28;19916;-73
2023/03/10 13:12:46;;;;;;;;;;;14.80;99.90;;;;;;5036543;28;20372;-73
2023/03/10 13:15:32;;;;;;;;;;;15.00;99.90;;;;;;5036977;28;19916;-73
2023/03/10 13:18:18;;;;;;;;;;;15.10;99.90;;;;;;5036107;28;19909;-73
2023/03/10 13:20:44;;;;;;;;;;;15.20;99.90;;;;;;5036671;28;19963;-73
2023/03/10 13:23:31;;;;;;;;;;;15.30;99.90;;;;;;5036565;28;20345;-73
2023/03/10 13:25:57;;;;;;;;;;;15.40;99.90;;;;;;5035535;28;19913;-73
2023/03/10 13:28:23;;;;;;;;;;;15.50;99.90;;;;;;5035104;28;19916;-73
2023/03/10 13:30:49;;;;;;;;;;;15.60;99.90;;;;;;5036440;28;19909;-73
2023/03/10 13:33:22;;;;;;;;;;;15.60;99.90;;;;;;5036411;28;19910;-73
2023/03/10 13:35:48;;;;;;;;;;;15.80;99.90;;;;;;5036690;28;19913;-73
2023/03/10 13:38:23;;;;;;;;;;;15.90;99.90;;;;;;5036164;28;20525;-73
2023/03/10 13:40:48;;;;;;;;;;;15.90;99.90;;;;;;5036834;28;20267;-73
2023/03/10 13:43:33;;;;;;;;;;;16.00;99.90;;;;;;5036499;28;19909;-73
2023/03/10 13:46:00;;;;;;;;;;;16.00;99.90;;;;;;5036866;28;19974;-75
2023/03/10 13:48:27;;;;;;;;;;;16.10;99.90;;;;;;5036122;28;20294;-73
2023/03/10 13:51:06;;;;;;;;;;;16.10;99.90;;;;;;5036395;28;19909;-73
2023/03/10 13:53:32;;;;;;;;;;;16.10;99.90;;;;;;5036170;28;19913;-73
2023/03/10 13:55:58;;;;;;;;;;;16.00;99.90;;;;;;5036587;28;19963;-73
2023/03/10 13:58:24;;;;;;;;;;;16.10;99.90;;;;;;5036386;28;19917;-73
2023/03/10 14:00:51;;;;;;;;;;;16.10;99.90;;;;;;5036225;28;20268;-73
2023/03/10 14:03:16;;;;;;;;;;;16.10;99.90;;;;;;5035974;28;19921;-73
2023/03/10 14:05:44;;;;;;;;;;;16.20;99.90;;;;;;5036392;28;19924;-73
2023/03/10 14:08:27;;;;;;;;;;;16.20;99.90;;;;;;5035989;28;19932;-73
2023/03/10 14:11:13;;;;;;;;;;;16.30;99.90;;;;;;5036089;28;19916;-73
2023/03/10 14:13:39;;;;;;;;;;;16.30;99.90;;;;;;5035745;28;19916;-73
2023/03/10 14:16:04;;;;;;;;;;;16.30;99.90;;;;;;5036277;28;19913;-73
2023/03/10 14:18:35;;;;;;;;;;;16.20;99.90;;;;;;5035547;28;19951;-73
2023/03/10 14:21:19;;;;;;;;;;;16.20;99.90;;;;;;5034544;28;19917;-74
2023/03/10 14:23:45;;;;;;;;;;;16.20;99.90;;;;;;5033954;28;19955;-73
2023/03/10 14:26:15;;;;;;;;;;;16.20;99.90;;;;;;5035868;28;19917;-73
2023/03/10 14:28:40;;;;;;;;;;;16.20;99.90;;;;;;5035484;28;19992;-73